Time;durP1;ratioP1;P1;durP2;ratioP2;P2;SDS_P1;SDS_P2;PMS_P1;PMS_P2;Temp;Humidity;BMP_temperature;BMP_pressure;BME280_temperature;BME280_humidity;BME280_pressure;Samples;Min_cycle;Max_cycle;Signal;HPM_P1;HPM_P2
2024/01/05 00:00:01;;;;;;;12.17;2.03;;;24.00;64.00;;;;;;5062093;28;20186;-73
2024/01/05 00:02:29;;;;;;;9.33;1.83;;;24.20;64.60;;;;;;5056899;28;20317;-73
2024/01/05 00:04:56;;;;;;;11.97;2.57;;;24.30;63.70;;;;;;5058142;28;20329;-72
2024/01/05 00:07:26;;;;;;;7.83;2.43;;;24.50;63.30;;;;;;5064622;28;20207;-71
2024/01/05 00:09:54;;;;;;;9.07;2.03;;;24.70;63.20;;;;;;5053782;28;20546;-70
2024/01/05 00:12:21;;;;;;;10.23;2.20;;;24.70;62.90;;;;;;5042172;28;20305;-71
2024/01/05 00:14:51;;;;;;;7.77;1.97;;;24.60;61.30;;;;;;5058893;28;20525;-71
2024/01/05 00:17:19;;;;;;;11.53;2.10;;;24.70;62.00;;;;;;5058575;28;20686;-71
2024/01/05 00:19:46;;;;;;;7.67;2.30;;;24.80;62.10;;;;;;5059941;28;20199;-72
2024/01/05 00:22:13;;;;;;;8.97;2.50;;;24.70;63.20;;;;;;5060563;28;20198;-73
2024/01/05 00:24:40;;;;;;;13.17;2.20;;;24.80;63.00;;;;;;5042146;28;20184;-72
2024/01/05 00:27:08;;;;;;;9.37;2.20;;;24.80;62.60;;;;;;5045221;28;20240;-71
2024/01/05 00:29:35;;;;;;;6.00;2.10;;;24.80;61.80;;;;;;5054281;28;20596;-72
2024/01/05 00:32:03;;;;;;;10.53;2.80;;;24.90;61.50;;;;;;5054987;28;20183;-71
2024/01/05 00:34:30;;;;;;;7.43;2.13;;;25.00;61.60;;;;;;5053316;28;20217;-70
2024/01/05 00:36:57;;;;;;;7.77;1.90;;;25.10;61.80;;;;;;5060122;28;20279;-72
2024/01/05 00:39:25;;;;;;;7.80;1.80;;;25.20;60.90;;;;;;5061486;28;20176;-71
2024/01/05 00:41:52;;;;;;;12.20;1.77;;;25.20;61.00;;;;;;5062274;28;20243;-71
2024/01/05 00:44:19;;;;;;;8.03;2.00;;;25.30;60.80;;;;;;5068278;28;20651;-72
2024/01/05 00:46:46;;;;;;;8.83;1.70;;;25.30;60.30;;;;;;5063293;28;20203;-72
2024/01/05 00:49:14;;;;;;;6.53;1.90;;;25.20;59.80;;;;;;5060549;28;20191;-72
2024/01/05 00:51:41;;;;;;;6.60;2.13;;;25.40;60.00;;;;;;5066667;28;20580;-71
2024/01/05 00:54:08;;;;;;;6.43;1.80;;;25.60;59.90;;;;;;5040779;28;20188;-72
2024/01/05 00:56:36;;;;;;;9.50;1.77;;;25.50;59.70;;;;;;5060663;28;20207;-71
2024/01/05 00:59:05;;;;;;;7.17;1.70;;;25.50;59.90;;;;;;5059279;28;20187;-72
2024/01/05 01:01:33;;;;;;;8.60;1.80;;;25.60;59.30;;;;;;5062859;28;20183;-71
2024/01/05 01:04:00;;;;;;;5.60;1.57;;;25.60;59.80;;;;;;5064012;28;20183;-71
2024/01/05 01:06:27;;;;;;;6.80;2.00;;;25.50;58.60;;;;;;5053176;28;20204;-71
2024/01/05 01:08:55;;;;;;;6.83;1.63;;;25.40;57.50;;;;;;5044000;28;20673;-71
2024/01/05 01:11:24;;;;;;;10.77;2.00;;;25.70;57.70;;;;;;5052598;28;20189;-74
2024/01/05 01:13:51;;;;;;;11.77;1.90;;;25.80;57.30;;;;;;5059717;28;20191;-72
2024/01/05 01:16:18;;;;;;;9.37;2.30;;;25.80;57.30;;;;;;5059993;28;20172;-72
2024/01/05 01:18:46;;;;;;;5.10;1.50;;;26.30;55.90;;;;;;5054999;28;20176;-72
2024/01/05 01:21:13;;;;;;;9.63;1.77;;;26.40;55.90;;;;;;5057853;28;20180;-71
2024/01/05 01:23:40;;;;;;;9.30;1.93;;;26.60;55.40;;;;;;5058771;28;20180;-72
2024/01/05 01:26:08;;;;;;;7.23;1.73;;;26.40;54.10;;;;;;5048009;28;20179;-73
2024/01/05 01:28:35;;;;;;;6.70;1.50;;;26.30;54.60;;;;;;5045222;28;20199;-72
2024/01/05 01:31:02;;;;;;;4.30;1.30;;;26.30;53.90;;;;;;5050452;28;20592;-72
2024/01/05 01:33:29;;;;;;;9.23;1.40;;;26.70;53.40;;;;;;5057979;28;20179;-72
2024/01/05 01:35:57;;;;;;;6.50;1.73;;;26.80;52.90;;;;;;5053096;28;20276;-72
2024/01/05 01:38:24;;;;;;;7.97;1.60;;;26.80;52.30;;;;;;5061340;28;20224;-71
2024/01/05 01:40:54;;;;;;;7.50;1.63;;;26.80;52.50;;;;;;5054575;28;20215;-71
2024/01/05 01:43:28;;;;;;;9.53;1.57;;;26.60;52.90;;;;;;5039305;28;20192;-71
2024/01/05 01:46:00;;;;;;;8.23;2.00;;;26.30;52.80;;;;;;5044085;28;20734;-71
2024/01/05 01:48:29;;;;;;;8.20;1.93;;;26.20;54.50;;;;;;5051257;28;20271;-71
2024/01/05 01:50:57;;;;;;;5.57;1.77;;;26.20;55.00;;;;;;5054610;28;20199;-71
2024/01/05 01:53:27;;;;;;;5.87;1.53;;;26.20;54.80;;;;;;5030643;28;20188;-71
2024/01/05 01:55:55;;;;;;;5.33;2.03;;;26.30;55.00;;;;;;5046326;28;20762;-71
2024/01/05 01:58:23;;;;;;;6.13;1.80;;;26.20;54.60;;;;;;5044601;28;20184;-71
2024/01/05 02:00:52;;;;;;;7.07;1.90;;;26.20;54.70;;;;;;5049429;28;20669;-71
2024/01/05 02:03:20;;;;;;;6.97;1.67;;;26.30;54.90;;;;;;5051229;28;20638;-70
2024/01/05 02:05:48;;;;;;;6.43;1.90;;;26.20;56.00;;;;;;5047291;28;20183;-71
2024/01/05 02:08:16;;;;;;;9.37;1.70;;;26.10;57.20;;;;;;5044859;28;20200;-70
2024/01/05 02:10:45;;;;;;;4.77;1.30;;;25.80;56.30;;;;;;5051874;28;20206;-74
2024/01/05 02:13:12;;;;;;;8.80;2.00;;;25.70;57.00;;;;;;5047187;28;20196;-71
2024/01/05 02:15:40;;;;;;;18.20;1.93;;;25.90;56.40;;;;;;5051591;28;20179;-70
2024/01/05 02:18:15;;;;;;;5.97;1.30;;;25.80;56.80;;;;;;5051385;28;20642;-71
2024/01/05 02:20:44;;;;;;;8.23;1.80;;;25.60;56.50;;;;;;5055793;28;20217;-71
2024/01/05 02:23:27;;;;;;;5.03;1.77;;;26.00;55.80;;;;;;5049442;28;20709;-72
2024/01/05 02:25:56;;;;;;;5.63;1.63;;;26.00;54.70;;;;;;5043137;28;20185;-72
2024/01/05 02:28:25;;;;;;;13.83;1.73;;;26.30;55.20;;;;;;5052642;28;20192;-71
2024/01/05 02:30:56;;;;;;;4.13;1.37;;;26.40;54.40;;;;;;5059792;28;20206;-71
2024/01/05 02:33:24;;;;;;;4.47;1.60;;;26.40;54.30;;;;;;5050343;28;20207;-72
2024/01/05 02:35:52;;;;;;;5.13;1.23;;;26.30;54.30;;;;;;5041567;28;20595;-71
2024/01/05 02:38:19;;;;;;;10.53;1.70;;;26.30;53.30;;;;;;5053589;28;20175;-71
2024/01/05 02:40:47;;;;;;;6.27;1.70;;;26.30;53.50;;;;;;5037623;28;20223;-71
2024/01/05 02:43:14;;;;;;;7.47;1.70;;;26.30;54.00;;;;;;5054662;28;20861;-70
2024/01/05 02:45:43;;;;;;;6.43;1.80;;;26.30;52.10;;;;;;5055613;28;20180;-71
2024/01/05 02:48:10;;;;;;;4.83;1.20;;;26.30;52.50;;;;;;5057825;28;20304;-72
2024/01/05 02:50:39;;;;;;;4.63;1.50;;;26.10;52.00;;;;;;5061232;28;20217;-71
2024/01/05 02:53:06;;;;;;;5.10;1.87;;;26.00;52.40;;;;;;5067643;28;20652;-71
2024/01/05 02:55:34;;;;;;;7.00;1.30;;;26.00;52.90;;;;;;5055650;28;20698;-71
2024/01/05 02:58:03;;;;;;;8.97;1.50;;;25.90;54.10;;;;;;5042668;28;20176;-71
2024/01/05 03:00:32;;;;;;;6.50;1.30;;;25.70;55.00;;;;;;5062836;28;20728;-71
2024/01/05 03:03:00;;;;;;;3.60;1.17;;;25.60;54.40;;;;;;5056908;28;20654;-71
2024/01/05 03:05:27;;;;;;;7.80;2.00;;;25.70;53.90;;;;;;5055862;28;20254;-71
2024/01/05 03:07:54;;;;;;;11.63;1.63;;;26.00;54.50;;;;;;5034132;28;20261;-73
2024/01/05 03:10:22;;;;;;;5.97;1.43;;;26.40;54.30;;;;;;5048102;28;20174;-71
2024/01/05 03:12:51;;;;;;;6.83;1.70;;;26.30;53.10;;;;;;5058558;28;20660;-71
2024/01/05 03:15:19;;;;;;;4.87;1.40;;;26.70;53.90;;;;;;5058969;28;20184;-71
2024/01/05 03:17:47;;;;;;;4.57;1.57;;;27.30;53.50;;;;;;5055587;28;20700;-71
2024/01/05 03:20:17;;;;;;;5.77;1.40;;;27.80;51.00;;;;;;5061906;28;20274;-70
2024/01/05 03:22:44;;;;;;;5.97;1.23;;;27.90;48.50;;;;;;5058062;28;20186;-71
2024/01/05 03:25:12;;;;;;;9.93;1.73;;;27.90;48.80;;;;;;5058349;28;20175;-72
2024/01/05 03:27:39;;;;;;;6.20;1.70;;;28.00;49.40;;;;;;5058357;28;20234;-70
2024/01/05 03:30:07;;;;;;;9.23;1.90;;;28.00;49.50;;;;;;5060534;28;20258;-71
2024/01/05 03:32:35;;;;;;;8.67;1.70;;;28.30;49.30;;;;;;5059508;28;20739;-71
2024/01/05 03:35:02;;;;;;;7.40;1.70;;;28.60;49.20;;;;;;5056073;28;20199;-72
2024/01/05 03:37:29;;;;;;;9.43;1.73;;;28.40;49.20;;;;;;5040871;28;20200;-70
2024/01/05 03:39:57;;;;;;;5.70;1.57;;;28.50;49.30;;;;;;5032907;28;20180;-71
2024/01/05 03:42:24;;;;;;;5.97;1.60;;;28.60;49.70;;;;;;5048307;28;20232;-71
2024/01/05 03:44:51;;;;;;;7.07;1.30;;;28.10;49.80;;;;;;5052985;28;20183;-71
2024/01/05 03:47:19;;;;;;;4.47;1.20;;;28.50;48.50;;;;;;5056266;28;20235;-72
2024/01/05 03:49:46;;;;;;;4.57;1.30;;;28.30;49.20;;;;;;5058828;28;20187;-70
2024/01/05 03:52:13;;;;;;;5.73;1.30;;;28.60;48.60;;;;;;5061428;28;20179;-70
2024/01/05 03:54:41;;;;;;;5.67;1.80;;;28.50;48.70;;;;;;5061239;28;20233;-74
2024/01/05 03:57:11;;;;;;;5.77;1.30;;;28.00;49.00;;;;;;5066276;28;20273;-71
2024/01/05 03:59:38;;;;;;;8.47;1.50;;;27.60;50.60;;;;;;5059113;28;20183;-70
2024/01/05 04:02:05;;;;;;;4.30;1.17;;;27.20;51.60;;;;;;5062512;28;20179;-70
2024/01/05 04:04:33;;;;;;;5.13;1.20;;;26.70;52.60;;;;;;5054683;28;20544;-70
2024/01/05 04:07:00;;;;;;;11.77;1.73;;;26.70;53.20;;;;;;5059407;28;20277;-69
2024/01/05 04:09:27;;;;;;;5.13;1.53;;;26.70;52.90;;;;;;5057554;28;20180;-71
2024/01/05 04:11:54;;;;;;;6.23;1.40;;;26.80;52.30;;;;;;5058450;28;20183;-70
2024/01/05 04:14:22;;;;;;;6.67;1.30;;;26.90;52.50;;;;;;5052531;28;20237;-70
2024/01/05 04:16:49;;;;;;;8.87;1.47;;;27.40;52.30;;;;;;5054274;28;20184;-73
2024/01/05 04:19:16;;;;;;;3.50;1.00;;;27.70;50.90;;;;;;5055171;28;20183;-71
2024/01/05 04:21:44;;;;;;;2.53;0.97;;;27.80;49.50;;;;;;5058306;28;20179;-71
2024/01/05 04:24:11;;;;;;;4.80;1.30;;;27.90;49.80;;;;;;5055737;28;20275;-72
2024/01/05 04:26:39;;;;;;;4.70;1.47;;;28.10;48.60;;;;;;5059558;28;20206;-72
2024/01/05 04:29:06;;;;;;;6.97;1.50;;;27.90;49.20;;;;;;5056721;28;20184;-72
2024/01/05 04:31:33;;;;;;;4.63;1.40;;;28.10;48.50;;;;;;5057855;28;20203;-72
2024/01/05 04:34:03;;;;;;;3.30;1.20;;;28.30;48.40;;;;;;5054403;28;20195;-72
2024/01/05 04:36:30;;;;;;;5.57;1.33;;;28.10;49.00;;;;;;5024175;28;20646;-72
2024/01/05 04:39:01;;;;;;;8.57;1.70;;;28.30;48.70;;;;;;5047918;28;20638;-71
2024/01/05 04:41:29;;;;;;;6.07;1.37;;;28.20;49.40;;;;;;5051852;28;20736;-72
2024/01/05 04:43:57;;;;;;;8.43;1.60;;;28.10;49.20;;;;;;5058668;28;20641;-72
2024/01/05 04:46:24;;;;;;;5.40;1.40;;;27.50;50.10;;;;;;5052227;28;20214;-73
2024/01/05 04:48:54;;;;;;;6.33;1.40;;;27.50;50.40;;;;;;5045120;28;20234;-72
2024/01/05 04:51:22;;;;;;;4.93;1.67;;;27.30;51.40;;;;;;5056341;28;20180;-73
2024/01/05 04:53:49;;;;;;;4.70;1.17;;;28.00;48.90;;;;;;5049433;28;20187;-72
2024/01/05 04:56:17;;;;;;;3.17;1.20;;;28.60;47.60;;;;;;5046361;28;20267;-71
2024/01/05 04:58:44;;;;;;;2.97;1.07;;;28.80;48.00;;;;;;5057577;28;20199;-74
2024/01/05 05:01:11;;;;;;;9.27;1.70;;;29.10;46.80;;;;;;5055144;28;20192;-71
2024/01/05 05:03:39;;;;;;;7.37;1.50;;;28.80;48.00;;;;;;5054420;28;20201;-72
2024/01/05 05:06:06;;;;;;;6.07;1.63;;;28.50;47.30;;;;;;5057007;28;20180;-71
2024/01/05 05:08:34;;;;;;;6.93;1.70;;;28.30;46.60;;;;;;5060997;28;20195;-72
2024/01/05 05:11:01;;;;;;;4.87;1.33;;;28.00;47.80;;;;;;5062687;28;20666;-72
2024/01/05 05:13:28;;;;;;;4.20;1.17;;;28.40;47.00;;;;;;5045017;28;20187;-71
2024/01/05 05:15:55;;;;;;;6.03;1.27;;;28.90;45.80;;;;;;5048856;28;20595;-71
2024/01/05 05:18:23;;;;;;;3.92;1.30;;;29.60;44.70;;;;;;5044565;28;20176;-71
2024/01/05 05:20:50;;;;;;;6.40;1.50;;;29.60;44.30;;;;;;5051385;28;20188;-71
2024/01/05 05:23:17;;;;;;;5.30;1.25;;;29.30;45.10;;;;;;5046696;28;20176;-72
2024/01/05 05:25:45;;;;;;;3.60;1.20;;;28.90;46.00;;;;;;5054044;28;20274;-73
2024/01/05 05:28:12;;;;;;;5.22;1.17;;;28.80;45.60;;;;;;5044992;28;20230;-70
2024/01/05 05:30:39;;;;;;;4.82;1.08;;;28.30;46.40;;;;;;5056867;28;20179;-72
2024/01/05 05:33:07;;;;;;;4.63;1.08;;;28.90;44.00;;;;;;5053256;28;20180;-71
2024/01/05 05:35:34;;;;;;;8.80;1.50;;;28.90;44.70;;;;;;5058169;28;20646;-71
2024/01/05 05:38:06;;;;;;;5.78;1.27;;;29.10;43.90;;;;;;5054798;28;20207;-71
2024/01/05 05:40:33;;;;;;;6.93;1.10;;;29.10;44.60;;;;;;5053870;28;20203;-71
2024/01/05 05:43:00;;;;;;;4.30;0.98;;;29.90;42.50;;;;;;5055338;28;20173;-70
2024/01/05 05:45:28;;;;;;;6.18;1.02;;;29.80;42.30;;;;;;5052719;28;20188;-71
2024/01/05 05:47:55;;;;;;;3.38;1.08;;;30.10;42.10;;;;;;5045976;28;20215;-72
2024/01/05 05:50:22;;;;;;;7.43;1.52;;;30.00;42.70;;;;;;5046623;28;20189;-72
2024/01/05 05:52:51;;;;;;;4.53;1.23;;;30.40;41.50;;;;;;5051385;28;20184;-72
2024/01/05 05:55:19;;;;;;;6.50;1.00;;;30.60;40.20;;;;;;5046168;28;20206;-73
2024/01/05 05:57:46;;;;;;;2.00;1.00;;;29.20;42.20;;;;;;5041226;28;20275;-70
2024/01/05 06:00:14;;;;;;;5.60;1.33;;;28.80;43.60;;;;;;5043849;28;20203;-71
2024/01/05 06:02:41;;;;;;;5.30;1.17;;;29.60;42.50;;;;;;5044384;28;20192;-71
2024/01/05 06:05:09;;;;;;;4.25;1.13;;;29.60;43.10;;;;;;5065474;28;20295;-72
2024/01/05 06:07:36;;;;;;;6.95;1.35;;;29.50;43.70;;;;;;5056749;28;20308;-72
2024/01/05 06:10:05;;;;;;;9.60;1.90;;;30.30;42.40;;;;;;5042552;28;20255;-73
2024/01/05 06:12:35;;;;;;;5.35;1.27;;;30.50;42.30;;;;;;5045249;28;20197;-73
2024/01/05 06:15:02;;;;;;;4.97;1.10;;;31.00;41.80;;;;;;5046814;28;20176;-72
2024/01/05 06:17:29;;;;;;;3.60;1.02;;;31.60;38.50;;;;;;5055937;28;20261;-74
2024/01/05 06:19:57;;;;;;;4.78;1.38;;;30.90;39.10;;;;;;5060225;28;20172;-70
2024/01/05 06:22:24;;;;;;;5.82;1.23;;;30.60;40.40;;;;;;5031989;28;20646;-71
2024/01/05 06:24:51;;;;;;;3.60;1.20;;;30.30;41.00;;;;;;5053075;28;20548;-71
2024/01/05 06:27:19;;;;;;;6.15;1.15;;;30.20;41.50;;;;;;5051324;28;20230;-71
2024/01/05 06:29:46;;;;;;;3.60;0.85;;;30.50;40.70;;;;;;5046177;28;20180;-71
2024/01/05 06:32:13;;;;;;;5.85;1.33;;;30.20;41.30;;;;;;5053412;28;21391;-71
2024/01/05 06:34:40;;;;;;;6.00;1.13;;;30.10;41.50;;;;;;5052956;28;20178;-70
2024/01/05 06:37:08;;;;;;;5.43;1.10;;;29.80;42.60;;;;;;5053082;28;20657;-71
2024/01/05 06:39:35;;;;;;;6.85;1.30;;;30.10;42.50;;;;;;5049585;28;20202;-70
2024/01/05 06:42:03;;;;;;;6.20;1.45;;;30.50;41.40;;;;;;5049633;28;20246;-69
2024/01/05 06:44:30;;;;;;;4.38;1.25;;;30.10;41.90;;;;;;5034396;28;20223;-69
2024/01/05 06:46:57;;;;;;;6.03;1.10;;;30.00;42.30;;;;;;5042900;28;20211;-71
2024/01/05 06:49:25;;;;;;;4.55;1.40;;;30.50;41.20;;;;;;5043591;28;20602;-69
2024/01/05 06:51:53;;;;;;;7.70;1.38;;;30.80;41.20;;;;;;5052197;28;20212;-72
2024/01/05 06:54:20;;;;;;;5.38;1.13;;;29.70;42.10;;;;;;5047231;28;20203;-70
2024/01/05 06:56:48;;;;;;;5.05;1.35;;;28.30;44.60;;;;;;5052862;28;20278;-70
2024/01/05 06:59:16;;;;;;;5.40;1.40;;;28.10;45.20;;;;;;5039833;28;20186;-68
2024/01/05 07:01:43;;;;;;;3.13;1.00;;;27.40;47.50;;;;;;5053362;28;20188;-71
2024/01/05 07:04:13;;;;;;;4.23;1.50;;;27.10;49.00;;;;;;5052296;28;20180;-71
2024/01/05 07:06:41;;;;;;;10.27;1.77;;;26.80;49.00;;;;;;5042654;28;20270;-70
2024/01/05 07:09:09;;;;;;;9.27;1.27;;;26.60;49.00;;;;;;5056502;28;20288;-71
2024/01/05 07:11:36;;;;;;;5.17;1.23;;;26.20;50.50;;;;;;5048179;28;20280;-70
2024/01/05 07:14:04;;;;;;;8.80;1.37;;;25.90;50.90;;;;;;5047499;28;20180;-70
2024/01/05 07:16:31;;;;;;;3.97;1.30;;;25.50;52.40;;;;;;5044219;28;20190;-70
2024/01/05 07:18:59;;;;;;;5.60;1.30;;;25.60;53.30;;;;;;5055203;28;20541;-70
2024/01/05 07:21:27;;;;;;;5.77;1.53;;;25.60;52.60;;;;;;5043219;28;20203;-72
2024/01/05 07:23:54;;;;;;;5.30;1.60;;;25.70;52.20;;;;;;5041720;28;20203;-73
2024/01/05 07:26:24;;;;;;;5.10;1.20;;;25.80;53.70;;;;;;5048308;28;20263;-71
2024/01/05 07:28:51;;;;;;;5.00;1.20;;;26.20;51.90;;;;;;5038293;28;20246;-71
2024/01/05 07:31:25;;;;;;;6.10;1.50;;;26.40;50.30;;;;;;5046412;28;20674;-67
2024/01/05 07:33:52;;;;;;;6.07;1.20;;;26.60;50.30;;;;;;5041080;28;20188;-70
2024/01/05 07:36:19;;;;;;;7.93;1.40;;;26.50;51.00;;;;;;5032520;28;20548;-71
2024/01/05 07:38:47;;;;;;;4.77;1.23;;;26.50;50.60;;;;;;5046136;28;20694;-70
2024/01/05 07:41:18;;;;;;;6.80;1.80;;;25.90;52.00;;;;;;5052442;28;20285;-69
2024/01/05 07:43:45;;;;;;;9.83;2.40;;;25.90;52.70;;;;;;5051329;28;20199;-71
2024/01/05 07:46:13;;;;;;;7.33;1.60;;;25.40;53.70;;;;;;5057141;28;20222;-70
2024/01/05 07:48:41;;;;;;;6.60;2.03;;;25.20;53.90;;;;;;5057331;28;20642;-69
2024/01/05 07:51:10;;;;;;;6.53;1.80;;;24.90;55.50;;;;;;5058802;28;20194;-70
2024/01/05 07:53:38;;;;;;;11.83;1.83;;;24.70;56.90;;;;;;5052180;28;20188;-70
2024/01/05 07:56:06;;;;;;;5.73;1.30;;;24.70;57.10;;;;;;5048240;28;20186;-70
2024/01/05 07:58:33;;;;;;;7.80;1.50;;;24.70;57.70;;;;;;5044692;28;20673;-69
2024/01/05 08:01:01;;;;;;;11.67;1.90;;;24.50;57.90;;;;;;5054146;28;22048;-71
2024/01/05 08:03:29;;;;;;;5.67;1.30;;;24.30;58.60;;;;;;5044486;28;20643;-69
2024/01/05 08:05:56;;;;;;;7.17;1.80;;;24.10;58.50;;;;;;5051531;28;20192;-71
2024/01/05 08:08:23;;;;;;;7.63;1.70;;;23.80;59.70;;;;;;5042093;28;20670;-70
2024/01/05 08:10:50;;;;;;;10.23;2.23;;;23.90;59.00;;;;;;5051101;28;20193;-70
2024/01/05 08:13:19;;;;;;;8.90;1.43;;;24.00;60.10;;;;;;5039362;28;20207;-70
2024/01/05 08:15:46;;;;;;;6.63;1.77;;;24.10;59.30;;;;;;5045232;28;20271;-71
2024/01/05 08:18:13;;;;;;;10.17;2.30;;;24.10;59.90;;;;;;5050122;28;20279;-71
2024/01/05 08:20:41;;;;;;;9.07;1.43;;;23.90;60.30;;;;;;5047620;28;20184;-71
2024/01/05 08:23:08;;;;;;;9.43;1.60;;;23.70;60.40;;;;;;5051898;28;20202;-68
2024/01/05 08:25:36;;;;;;;6.37;2.10;;;23.50;61.00;;;;;;5054183;28;20191;-71
2024/01/05 08:28:03;;;;;;;7.23;1.83;;;23.30;61.30;;;;;;5051217;28;20247;-72
2024/01/05 08:30:31;;;;;;;11.00;2.37;;;23.10;62.20;;;;;;5044498;28;20597;-70
2024/01/05 08:32:58;;;;;;;10.10;1.87;;;23.10;62.00;;;;;;5060368;28;20203;-68
2024/01/05 08:35:26;;;;;;;11.10;2.13;;;23.20;62.40;;;;;;5040708;28;20175;-68
2024/01/05 08:37:53;;;;;;;5.83;2.10;;;23.00;62.60;;;;;;5040616;28;20313;-68
2024/01/05 08:40:25;;;;;;;7.53;2.00;;;23.00;63.10;;;;;;5050765;28;20238;-72
2024/01/05 08:42:54;;;;;;;6.73;2.00;;;22.90;63.20;;;;;;5042935;28;20539;-68
2024/01/05 08:45:22;;;;;;;6.87;2.20;;;23.00;62.90;;;;;;5044799;28;20180;-70
2024/01/05 08:47:50;;;;;;;10.40;2.50;;;22.90;63.10;;;;;;5050292;28;20261;-70
2024/01/05 08:50:17;;;;;;;9.83;1.63;;;22.80;63.00;;;;;;5047562;28;20172;-69
2024/01/05 08:52:45;;;;;;;10.43;1.80;;;22.80;62.90;;;;;;5044967;28;20181;-69
2024/01/05 08:55:17;;;;;;;5.20;1.80;;;22.60;63.80;;;;;;5040450;28;20188;-68
2024/01/05 08:57:46;;;;;;;7.30;1.60;;;22.50;64.40;;;;;;5033325;28;20180;-69
2024/01/05 09:00:13;;;;;;;6.63;1.50;;;22.30;64.50;;;;;;5045530;28;20195;-69
2024/01/05 09:02:41;;;;;;;5.70;2.23;;;22.30;65.00;;;;;;5041204;28;20192;-69
2024/01/05 09:05:09;;;;;;;8.70;1.87;;;22.30;64.30;;;;;;5052252;28;20708;-69
2024/01/05 09:07:36;;;;;;;7.87;1.93;;;22.20;64.00;;;;;;5051404;28;20222;-69
2024/01/05 09:10:04;;;;;;;6.97;2.07;;;22.10;64.20;;;;;;5049462;28;20192;-69
2024/01/05 09:12:31;;;;;;;4.87;1.40;;;22.10;64.30;;;;;;5047862;28;20199;-70
2024/01/05 09:14:58;;;;;;;7.67;1.73;;;22.10;64.00;;;;;;5046213;28;20207;-69
2024/01/05 09:17:26;;;;;;;3.97;1.83;;;22.00;64.20;;;;;;5046842;28;20188;-70
2024/01/05 09:19:53;;;;;;;11.13;1.70;;;22.00;63.80;;;;;;5045969;28;20184;-70
2024/01/05 09:22:20;;;;;;;9.67;2.00;;;21.90;64.00;;;;;;5055961;28;20186;-71
2024/01/05 09:24:48;;;;;;;7.63;1.97;;;21.90;64.30;;;;;;5056136;28;20191;-70
2024/01/05 09:27:15;;;;;;;7.37;1.70;;;21.90;64.40;;;;;;5052871;28;20603;-71
2024/01/05 09:29:42;;;;;;;4.93;2.00;;;21.90;64.20;;;;;;5051152;28;20646;-70
2024/01/05 09:32:09;;;;;;;11.20;2.30;;;21.80;64.90;;;;;;5045804;28;20315;-70
2024/01/05 09:34:37;;;;;;;4.33;1.47;;;21.80;65.10;;;;;;5044424;28;20187;-71
2024/01/05 09:37:04;;;;;;;7.53;2.43;;;21.70;65.50;;;;;;5056476;28;20215;-72
2024/01/05 09:39:32;;;;;;;8.60;1.90;;;21.80;65.90;;;;;;5051858;28;20557;-72
2024/01/05 09:41:59;;;;;;;11.23;2.23;;;21.80;65.90;;;;;;5049596;28;20781;-71
2024/01/05 09:44:27;;;;;;;8.30;1.93;;;21.70;66.40;;;;;;5044943;28;20701;-71
2024/01/05 09:46:57;;;;;;;7.47;1.73;;;21.70;66.70;;;;;;5048712;28;20781;-70
2024/01/05 09:49:24;;;;;;;8.23;1.70;;;21.70;66.30;;;;;;5051295;28;20536;-70
2024/01/05 09:51:53;;;;;;;5.50;1.70;;;21.60;66.80;;;;;;5041851;28;20187;-72
2024/01/05 09:54:20;;;;;;;6.20;1.80;;;21.60;66.60;;;;;;5035076;28;20643;-70
2024/01/05 09:56:48;;;;;;;5.13;1.50;;;21.60;66.70;;;;;;5038467;28;20185;-71
2024/01/05 09:59:17;;;;;;;8.77;1.90;;;21.60;66.20;;;;;;5051155;28;20196;-70
2024/01/05 10:01:49;;;;;;;11.33;1.97;;;21.60;66.00;;;;;;5046255;28;20182;-70
2024/01/05 10:04:19;;;;;;;8.27;2.00;;;21.60;66.10;;;;;;5042931;28;20207;-70
2024/01/05 10:06:46;;;;;;;5.57;1.73;;;21.60;66.60;;;;;;5045260;28;20740;-70
2024/01/05 10:09:13;;;;;;;8.77;1.90;;;21.60;66.10;;;;;;5047304;28;20196;-70
2024/01/05 10:11:42;;;;;;;5.33;1.90;;;21.50;66.10;;;;;;5040989;28;20184;-71
2024/01/05 10:14:12;;;;;;;7.20;1.97;;;21.50;66.50;;;;;;5041009;28;20658;-71
2024/01/05 10:16:39;;;;;;;5.73;1.80;;;21.50;67.00;;;;;;5037077;28;20749;-70
2024/01/05 10:19:15;;;;;;;6.90;1.90;;;21.50;66.40;;;;;;5038739;28;20195;-71
2024/01/05 10:21:44;;;;;;;5.80;1.60;;;21.50;66.70;;;;;;5046274;28;20641;-71
2024/01/05 10:24:29;;;;;;;5.73;1.60;;;21.50;66.40;;;;;;5056997;28;20184;-71
2024/01/05 10:27:15;;;;;;;8.23;2.00;;;21.40;66.60;;;;;;5055157;28;20210;-71
2024/01/05 10:29:43;;;;;;;5.73;1.93;;;21.40;66.90;;;;;;5048414;28;20676;-71
2024/01/05 10:32:18;;;;;;;7.73;1.77;;;21.30;66.80;;;;;;5051870;28;20275;-73
2024/01/05 10:34:48;;;;;;;7.77;2.40;;;21.40;67.10;;;;;;5047901;28;20202;-71
2024/01/05 10:37:18;;;;;;;11.83;1.87;;;21.40;67.10;;;;;;5045341;28;20184;-71
2024/01/05 10:39:51;;;;;;;8.03;1.80;;;21.30;67.30;;;;;;5050995;28;20176;-72
2024/01/05 10:42:29;;;;;;;8.10;1.67;;;21.30;67.20;;;;;;5045576;28;20228;-71
2024/01/05 10:44:57;;;;;;;7.13;1.77;;;21.30;67.80;;;;;;5048402;28;20175;-72
2024/01/05 10:47:26;;;;;;;14.30;2.17;;;21.30;67.50;;;;;;5047781;28;20320;-72
2024/01/05 10:49:55;;;;;;;7.67;1.87;;;21.30;67.40;;;;;;5048565;28;20180;-71
2024/01/05 10:52:33;;;;;;;8.53;1.73;;;21.30;67.30;;;;;;5048319;28;20548;-71
2024/01/05 10:55:03;;;;;;;11.10;2.20;;;21.30;67.00;;;;;;5049635;28;20179;-71
2024/01/05 10:57:36;;;;;;;14.43;2.30;;;21.40;67.10;;;;;;5046234;28;20595;-72
2024/01/05 11:00:07;;;;;;;5.63;1.70;;;21.40;67.10;;;;;;5047930;28;20635;-72
2024/01/05 11:02:40;;;;;;;13.73;1.97;;;21.40;67.00;;;;;;5044004;28;20193;-73
2024/01/05 11:05:12;;;;;;;5.80;1.63;;;21.30;67.00;;;;;;5052923;28;20186;-71
2024/01/05 11:07:41;;;;;;;6.40;1.50;;;21.30;67.10;;;;;;5040829;28;20212;-72
2024/01/05 11:10:25;;;;;;;9.63;2.03;;;21.30;67.20;;;;;;5050180;28;20196;-72
2024/01/05 11:13:16;;;;;;;7.23;1.77;;;21.30;67.10;;;;;;5046680;28;20201;-72
2024/01/05 11:16:32;;;;;;;7.70;1.40;;;21.20;67.10;;;;;;5051603;28;20185;-72
2024/01/05 11:19:17;;;;;;;6.67;1.50;;;21.20;67.10;;;;;;5051722;28;20204;-72
2024/01/05 11:21:45;;;;;;;10.60;1.70;;;21.20;67.00;;;;;;5062449;28;20191;-71
2024/01/05 11:24:14;;;;;;;5.53;1.47;;;21.20;66.90;;;;;;5062503;28;20264;-70
2024/01/05 11:26:45;;;;;;;7.53;1.90;;;21.20;67.00;;;;;;5052339;28;20195;-70
2024/01/05 11:29:13;;;;;;;7.83;1.77;;;21.20;66.90;;;;;;5056019;28;20246;-71
2024/01/05 11:31:46;;;;;;;8.57;1.90;;;21.20;66.70;;;;;;5058041;28;20186;-71
2024/01/05 11:34:34;;;;;;;5.80;1.77;;;21.20;66.90;;;;;;5054560;28;20187;-72
2024/01/05 11:37:05;;;;;;;12.17;2.03;;;21.20;66.50;;;;;;5054555;28;20221;-73
2024/01/05 11:39:41;;;;;;;8.60;1.47;;;21.30;66.50;;;;;;5053154;28;20188;-71
2024/01/05 11:42:09;;;;;;;9.20;1.43;;;21.40;66.60;;;;;;5037741;28;20239;-71
2024/01/05 11:44:37;;;;;;;11.47;2.20;;;21.40;66.20;;;;;;5040319;28;20176;-72
2024/01/05 11:47:04;;;;;;;7.50;1.60;;;21.50;66.50;;;;;;5037556;28;20251;-72
2024/01/05 11:49:41;;;;;;;10.03;2.00;;;21.50;66.30;;;;;;5046348;28;20558;-72
2024/01/05 11:52:09;;;;;;;6.40;1.90;;;21.50;66.20;;;;;;5037009;28;20184;-73
2024/01/05 11:54:36;;;;;;;8.50;2.00;;;21.60;66.30;;;;;;5032578;28;20195;-72
2024/01/05 11:57:05;;;;;;;12.63;1.73;;;21.60;66.30;;;;;;5035824;28;20188;-72
2024/01/05 11:59:32;;;;;;;7.33;1.70;;;21.60;66.10;;;;;;5038121;28;20230;-72
2024/01/05 12:02:00;;;;;;;9.03;2.00;;;21.60;66.50;;;;;;5036171;28;20216;-71
2024/01/05 12:04:27;;;;;;;12.23;2.10;;;21.60;66.60;;;;;;5031431;28;20199;-71
2024/01/05 12:06:54;;;;;;;6.87;1.50;;;21.60;66.40;;;;;;5035656;28;20569;-72
2024/01/05 12:09:22;;;;;;;5.07;1.60;;;21.50;66.70;;;;;;5040358;28;20571;-72
2024/01/05 12:11:50;;;;;;;9.07;1.93;;;21.50;66.60;;;;;;5025785;28;20180;-72
2024/01/05 12:14:30;;;;;;;8.03;1.53;;;21.50;67.00;;;;;;5038291;28;20203;-72
2024/01/05 12:17:13;;;;;;;7.97;1.80;;;21.60;67.00;;;;;;5032540;28;20192;-71
2024/01/05 12:19:40;;;;;;;6.60;1.50;;;21.50;66.90;;;;;;5036650;28;20271;-70
2024/01/05 12:22:08;;;;;;;4.63;1.30;;;21.50;67.00;;;;;;5036539;28;20632;-70
2024/01/05 12:24:37;;;;;;;6.67;1.80;;;21.50;67.20;;;;;;5037125;28;20207;-69
2024/01/05 12:27:05;;;;;;;4.23;1.60;;;21.50;67.10;;;;;;5032161;28;20741;-70
2024/01/05 12:29:33;;;;;;;13.70;2.13;;;21.60;66.80;;;;;;5037963;28;20237;-70
2024/01/05 12:32:00;;;;;;;5.77;1.47;;;21.50;66.80;;;;;;5033449;28;20196;-71
2024/01/05 12:34:27;;;;;;;8.07;1.80;;;21.60;67.00;;;;;;5034146;28;20235;-70
2024/01/05 12:37:07;;;;;;;9.87;2.23;;;21.60;67.20;;;;;;5041315;28;20181;-70
2024/01/05 12:39:35;;;;;;;4.93;1.47;;;21.60;67.30;;;;;;5037698;28;20238;-70
2024/01/05 12:42:02;;;;;;;9.67;2.10;;;21.60;67.30;;;;;;5048861;28;20309;-70
2024/01/05 12:44:30;;;;;;;12.40;1.77;;;21.50;67.40;;;;;;5059384;28;20180;-71
2024/01/05 12:46:57;;;;;;;9.67;2.13;;;21.60;67.40;;;;;;5054809;28;20218;-70
2024/01/05 12:49:27;;;;;;;4.87;1.70;;;21.50;67.70;;;;;;5057470;28;20206;-69
2024/01/05 12:51:56;;;;;;;7.27;1.87;;;21.30;67.60;;;;;;5051342;28;20198;-70